Time;durP1;ratioP1;P1;durP2;ratioP2;P2;SDS_P1;SDS_P2;PMS_P1;PMS_P2;Temp;Humidity;BMP_temperature;BMP_pressure;BME280_temperature;BME280_humidity;BME280_pressure;Samples;Min_cycle;Max_cycle;Signal;HPM_P1;HPM_P2
2022/11/23 00:00:13;;;;;;;4.32;2.50;;;10.50;99.90;;;;;;5093522;28;20063;-52
2022/11/23 00:02:38;;;;;;;3.45;1.90;;;10.50;99.90;;;;;;5092523;28;20118;-67
2022/11/23 00:05:04;;;;;;;3.35;2.10;;;10.50;99.90;;;;;;5093182;28;20058;-53
2022/11/23 00:07:30;;;;;;;4.10;2.72;;;10.50;99.90;;;;;;5091569;28;20032;-51
2022/11/23 00:09:56;;;;;;;5.22;3.15;;;10.50;99.90;;;;;;5089982;28;20459;-52
2022/11/23 00:12:21;;;;;;;4.35;2.80;;;10.50;99.90;;;;;;5094639;28;20063;-51
2022/11/23 00:14:47;;;;;;;2.85;2.00;;;10.60;99.90;;;;;;5088060;28;20030;-51
2022/11/23 00:17:13;;;;;;;4.97;2.45;;;10.50;99.90;;;;;;5088067;28;20040;-52
2022/11/23 00:19:38;;;;;;;4.40;2.63;;;10.60;99.90;;;;;;5087656;28;20365;-52
2022/11/23 00:22:04;;;;;;;3.88;3.03;;;10.60;99.90;;;;;;5089922;28;20031;-52
2022/11/23 00:24:30;;;;;;;4.80;2.80;;;10.70;99.90;;;;;;5089486;28;20107;-51
2022/11/23 00:26:56;;;;;;;4.43;2.13;;;10.60;99.90;;;;;;5090479;28;20472;-52
2022/11/23 00:29:21;;;;;;;4.65;2.80;;;10.60;99.90;;;;;;5089540;28;20028;-52
2022/11/23 00:31:47;;;;;;;6.85;3.42;;;10.60;99.90;;;;;;5091154;28;20027;-51
2022/11/23 00:34:14;;;;;;;5.32;2.90;;;10.50;99.90;;;;;;5088263;28;20361;-51
2022/11/23 00:36:40;;;;;;;4.47;2.45;;;10.50;99.90;;;;;;5088398;28;20028;-52
2022/11/23 00:39:05;;;;;;;3.20;1.90;;;10.40;99.90;;;;;;5091770;28;20395;-52
2022/11/23 00:41:31;;;;;;;7.90;3.75;;;10.20;99.90;;;;;;5088977;28;20059;-51
2022/11/23 00:43:57;;;;;;;5.35;3.25;;;10.30;99.90;;;;;;5087914;28;20030;-53
2022/11/23 00:46:25;;;;;;;4.95;3.40;;;10.30;99.90;;;;;;5107368;28;20036;-52
2022/11/23 00:48:53;;;;;;;6.15;3.10;;;10.30;99.90;;;;;;5085429;28;20039;-51
2022/11/23 00:51:22;;;;;;;3.63;2.70;;;10.30;99.90;;;;;;5087335;28;20059;-51
2022/11/23 00:53:50;;;;;;;5.22;2.95;;;10.30;99.90;;;;;;5091326;28;20039;-51
2022/11/23 00:56:17;;;;;;;4.80;3.38;;;10.30;99.90;;;;;;5085431;28;20055;-52
2022/11/23 00:58:49;;;;;;;4.97;3.15;;;10.40;99.90;;;;;;5088375;28;20402;-52
2022/11/23 01:01:16;;;;;;;5.85;3.15;;;10.50;99.90;;;;;;5107566;28;20028;-51
2022/11/23 01:03:45;;;;;;;6.22;3.55;;;10.50;99.90;;;;;;5084782;28;20028;-52
2022/11/23 01:06:17;;;;;;;5.55;3.47;;;10.50;99.90;;;;;;5086936;28;20035;-52
2022/11/23 01:08:47;;;;;;;;;;;10.50;99.90;;;;;;5088510;28;20032;-51
2022/11/23 01:11:12;;;;;;;5.85;3.03;;;10.40;99.90;;;;;;5087150;28;19954;-51
2022/11/23 01:13:40;;;;;;;5.63;3.42;;;10.40;99.90;;;;;;5087134;28;20459;-52
2022/11/23 01:16:26;;;;;;;6.07;3.70;;;10.50;99.90;;;;;;5090251;28;20052;-51
2022/11/23 01:18:53;;;;;;;4.50;2.53;;;10.50;99.90;;;;;;5087510;28;20062;-52
2022/11/23 01:21:19;;;;;;;4.80;2.97;;;10.50;99.90;;;;;;5087265;28;20034;-51
2022/11/23 01:23:45;;;;;;;6.10;3.15;;;10.50;99.90;;;;;;5087666;28;20029;-51
2022/11/23 01:26:11;;;;;;;6.63;2.55;;;10.50;99.90;;;;;;5089436;28;20024;-51
2022/11/23 01:28:38;;;;;;;5.50;2.75;;;10.50;99.90;;;;;;5104253;28;20047;-51
2022/11/23 01:31:13;;;;;;;4.95;3.08;;;10.50;99.90;;;;;;5087094;28;20048;-51
2022/11/23 01:33:39;;;;;;;5.72;2.60;;;10.40;99.90;;;;;;5048881;28;20041;-53
2022/11/23 01:36:16;;;;;;;5.60;3.50;;;10.30;99.90;;;;;;5049684;28;20040;-52
2022/11/23 01:38:43;;;;;;;3.97;2.70;;;10.40;99.90;;;;;;5049867;28;20049;-53
2022/11/23 01:41:12;;;;;;;4.95;2.90;;;10.30;99.90;;;;;;5048684;28;20124;-53
2022/11/23 01:43:38;;;;;;;4.25;3.10;;;10.40;99.90;;;;;;5049424;28;20053;-52
2022/11/23 01:46:04;;;;;;;5.47;3.30;;;10.30;99.90;;;;;;5050259;28;20130;-51
2022/11/23 01:48:39;;;;;;;5.05;3.03;;;10.30;99.90;;;;;;5048945;28;20044;-51
2022/11/23 01:51:09;;;;;;;4.13;2.90;;;10.30;99.90;;;;;;5049071;28;20029;-51
2022/11/23 01:53:37;;;;;;;4.00;2.85;;;10.30;99.90;;;;;;4997244;28;20032;-52
2022/11/23 01:56:05;;;;;;;4.25;2.95;;;10.20;99.90;;;;;;5015365;28;20408;-52
2022/11/23 01:58:35;;;;;;;4.35;3.00;;;10.20;99.90;;;;;;5050348;28;20044;-51
2022/11/23 02:01:01;;;;;;;4.28;2.72;;;10.20;99.90;;;;;;5048389;28;20044;-51
2022/11/23 02:03:29;;;;;;;4.30;2.70;;;10.10;99.90;;;;;;5051100;28;20033;-52
2022/11/23 02:06:00;;;;;;;3.53;2.75;;;10.00;99.90;;;;;;5085412;28;20039;-52
2022/11/23 02:08:27;;;;;;;4.38;1.88;;;10.00;99.90;;;;;;5087306;28;20032;-51
2022/11/23 02:10:56;;;;;;;3.17;1.40;;;10.00;99.90;;;;;;5088086;28;20036;-52
2022/11/23 02:13:23;;;;;;;3.30;2.10;;;9.90;99.90;;;;;;5086217;28;20032;-52
2022/11/23 02:15:50;;;;;;;2.83;1.80;;;9.80;99.90;;;;;;5055053;28;20040;-52
2022/11/23 02:18:19;;;;;;;2.20;1.20;;;9.80;99.90;;;;;;5084871;28;20048;-52
2022/11/23 02:20:46;;;;;;;4.18;2.25;;;9.70;99.90;;;;;;5085579;28;20060;-52
2022/11/23 02:23:32;;;;;;;3.22;2.17;;;9.70;99.90;;;;;;5083915;28;20037;-52
2022/11/23 02:26:03;;;;;;;3.55;2.22;;;9.70;99.90;;;;;;5050515;28;20076;-51
2022/11/23 02:28:35;;;;;;;5.20;2.47;;;9.60;99.90;;;;;;5088207;28;20182;-52
2022/11/23 02:31:02;;;;;;;3.70;2.13;;;9.70;99.90;;;;;;5084782;28;20048;-51
2022/11/23 02:33:28;;;;;;;4.85;2.08;;;9.70;99.90;;;;;;5084042;28;20102;-51
2022/11/23 02:35:57;;;;;;;4.63;2.20;;;9.70;99.90;;;;;;5083555;28;20090;-53
2022/11/23 02:38:27;;;;;;;7.93;3.17;;;9.70;99.90;;;;;;5086522;28;20063;-51
2022/11/23 02:40:53;;;;;;;3.55;2.13;;;9.70;99.90;;;;;;5081933;28;20040;-52
2022/11/23 02:43:19;;;;;;;4.18;2.75;;;9.70;99.90;;;;;;5083161;28;20078;-51
2022/11/23 02:45:58;;;;;;;5.40;2.75;;;9.70;99.90;;;;;;5082557;28;20658;-51
2022/11/23 02:48:24;;;;;;;5.35;2.50;;;9.60;99.90;;;;;;5091116;28;20050;-51
2022/11/23 02:50:50;;;;;;;4.15;2.67;;;9.70;99.90;;;;;;5086517;28;20097;-51
2022/11/23 02:53:17;;;;;;;3.05;2.10;;;9.60;99.90;;;;;;5088817;28;20055;-51
2022/11/23 02:55:43;;;;;;;5.13;1.98;;;9.70;99.90;;;;;;5055790;28;20038;-52
2022/11/23 02:58:09;;;;;;;2.85;1.90;;;9.70;99.90;;;;;;5093746;28;20123;-52
2022/11/23 03:00:35;;;;;;;2.55;1.73;;;9.80;99.90;;;;;;5090673;28;20491;-51
2022/11/23 03:03:02;;;;;;;3.50;1.80;;;9.80;99.90;;;;;;5090109;28;20033;-51
2022/11/23 03:05:28;;;;;;;4.13;1.80;;;9.90;99.90;;;;;;5055700;28;20441;-51
2022/11/23 03:07:53;;;;;;;2.50;1.65;;;9.90;99.90;;;;;;5090651;28;20032;-51
2022/11/23 03:10:20;;;;;;;3.65;1.77;;;10.00;99.90;;;;;;5091349;28;20088;-52
2022/11/23 03:12:46;;;;;;;2.22;1.65;;;10.10;99.90;;;;;;5088325;28;20055;-52
2022/11/23 03:15:12;;;;;;;2.65;1.30;;;10.10;99.90;;;;;;5088088;28;20021;-51
2022/11/23 03:17:38;;;;;;;3.40;1.50;;;10.20;99.90;;;;;;5092474;28;20024;-51
2022/11/23 03:20:04;;;;;;;2.75;1.33;;;10.20;99.90;;;;;;5106872;28;20036;-51
2022/11/23 03:22:30;;;;;;;2.50;1.67;;;10.30;99.90;;;;;;5106372;28;20043;-52
2022/11/23 03:24:56;;;;;;;3.47;1.10;;;10.40;99.90;;;;;;5103373;28;20230;-52
2022/11/23 03:27:22;;;;;;;2.08;1.40;;;10.40;99.90;;;;;;5092651;28;20039;-51
2022/11/23 03:29:48;;;;;;;2.13;1.30;;;10.40;99.90;;;;;;5091898;28;20103;-52
2022/11/23 03:32:13;;;;;;;1.40;1.00;;;10.50;99.90;;;;;;5089537;28;20119;-52
2022/11/23 03:34:39;;;;;;;2.42;1.50;;;10.50;99.90;;;;;;5090861;28;20103;-51
2022/11/23 03:37:05;;;;;;;5.20;1.60;;;10.50;99.90;;;;;;5090393;28;20032;-51
2022/11/23 03:39:31;;;;;;;2.50;1.35;;;10.50;99.90;;;;;;5089808;28;20036;-52
2022/11/23 03:41:57;;;;;;;2.10;1.25;;;10.60;99.90;;;;;;5090857;28;20103;-53
2022/11/23 03:44:22;;;;;;;3.42;1.60;;;10.50;99.90;;;;;;5089273;28;20490;-51
2022/11/23 03:46:49;;;;;;;2.05;1.70;;;10.60;99.90;;;;;;5088189;28;20055;-53
2022/11/23 03:49:15;;;;;;;1.85;1.38;;;10.50;99.90;;;;;;5088956;28;20086;-52
2022/11/23 03:51:41;;;;;;;3.10;1.90;;;10.60;99.90;;;;;;5102196;28;20040;-52
2022/11/23 03:54:07;;;;;;;5.65;2.92;;;10.60;99.90;;;;;;5093647;28;20376;-53
2022/11/23 03:56:32;;;;;;;2.47;1.70;;;10.60;99.90;;;;;;5090693;28;20024;-51
2022/11/23 03:58:58;;;;;;;3.58;2.20;;;10.60;99.90;;;;;;5092503;28;20028;-52
2022/11/23 04:01:24;;;;;;;5.05;1.83;;;10.60;99.90;;;;;;5090381;28;20024;-52
2022/11/23 04:03:50;;;;;;;1.90;1.30;;;10.60;99.90;;;;;;5102280;28;20040;-52
2022/11/23 04:06:16;;;;;;;2.72;0.73;;;10.70;99.90;;;;;;5087309;28;20030;-52
2022/11/23 04:08:41;;;;;;;1.30;1.10;;;10.60;99.90;;;;;;5087249;28;20387;-52
2022/11/23 04:11:07;;;;;;;1.65;1.00;;;10.60;99.90;;;;;;5085391;28;20040;-52
2022/11/23 04:13:33;;;;;;;1.30;0.90;;;10.60;99.90;;;;;;5086398;28;20039;-52
2022/11/23 04:15:58;;;;;;;1.25;1.00;;;10.60;99.90;;;;;;5090364;28;20058;-52
2022/11/23 04:18:24;;;;;;;1.90;1.02;;;10.70;99.90;;;;;;5087340;28;20028;-52
2022/11/23 04:20:50;;;;;;;1.65;0.88;;;10.70;99.90;;;;;;5054178;28;20060;-52
2022/11/23 04:23:15;;;;;;;2.08;1.48;;;10.70;99.90;;;;;;5089106;28;20033;-52
2022/11/23 04:25:41;;;;;;;2.92;1.40;;;10.70;99.90;;;;;;5056063;28;20032;-52
2022/11/23 04:28:07;;;;;;;1.92;1.40;;;10.70;99.90;;;;;;5086237;28;20037;-51
2022/11/23 04:30:33;;;;;;;2.15;1.48;;;10.70;99.90;;;;;;5090357;28;20028;-52
2022/11/23 04:32:59;;;;;;;4.22;1.85;;;10.70;99.90;;;;;;5089872;28;20016;-52
2022/11/23 04:35:24;;;;;;;3.65;1.90;;;10.70;99.90;;;;;;5055950;28;20044;-52
2022/11/23 04:37:50;;;;;;;2.55;1.48;;;10.70;99.90;;;;;;5088427;28;20039;-51
2022/11/23 04:40:16;;;;;;;2.08;1.33;;;10.70;99.90;;;;;;5105353;28;20089;-52
2022/11/23 04:42:41;;;;;;;3.50;1.58;;;10.70;99.90;;;;;;5087829;28;20387;-52
2022/11/23 04:45:07;;;;;;;1.45;1.10;;;10.70;99.90;;;;;;5090554;28;20380;-52
2022/11/23 04:47:33;;;;;;;1.92;1.30;;;10.60;99.90;;;;;;5053223;28;20060;-53
2022/11/23 04:49:59;;;;;;;1.70;1.20;;;10.50;99.90;;;;;;5089211;28;20129;-51
2022/11/23 04:52:24;;;;;;;2.65;1.35;;;10.40;99.90;;;;;;5088705;28;20031;-52
2022/11/23 04:54:50;;;;;;;2.40;1.15;;;10.30;99.90;;;;;;5088462;28;20028;-51
2022/11/23 04:57:16;;;;;;;3.40;1.67;;;10.20;99.90;;;;;;5107554;28;20028;-52
2022/11/23 04:59:41;;;;;;;3.22;1.92;;;10.30;99.90;;;;;;5085611;28;20028;-52
2022/11/23 05:02:07;;;;;;;2.22;1.63;;;10.20;99.90;;;;;;5087544;28;20028;-53
2022/11/23 05:04:33;;;;;;;2.35;1.35;;;10.20;99.90;;;;;;5090780;28;20032;-54
2022/11/23 05:06:59;;;;;;;2.67;1.55;;;10.20;99.90;;;;;;5086227;28;20604;-52
2022/11/23 05:09:25;;;;;;;1.52;1.10;;;10.30;99.90;;;;;;5087356;28;20032;-52
2022/11/23 05:11:51;;;;;;;2.17;1.85;;;10.30;99.90;;;;;;5085469;28;20047;-51
2022/11/23 05:14:16;;;;;;;2.08;1.42;;;10.30;99.90;;;;;;5089856;28;20028;-53
2022/11/23 05:16:42;;;;;;;1.92;1.40;;;10.30;99.90;;;;;;5082842;28;20113;-52
2022/11/23 05:19:08;;;;;;;2.75;1.40;;;10.30;99.90;;;;;;5085361;28;20447;-52
2022/11/23 05:21:33;;;;;;;10.20;2.92;;;10.40;99.90;;;;;;5050930;28;20046;-52
2022/11/23 05:23:59;;;;;;;2.55;1.63;;;10.60;99.90;;;;;;5083376;28;20051;-51
2022/11/23 05:26:25;;;;;;;4.20;2.20;;;10.70;99.90;;;;;;5088277;28;20073;-52
2022/11/23 05:28:50;;;;;;;2.97;1.50;;;10.80;99.90;;;;;;5085537;28;20031;-52
2022/11/23 05:31:16;;;;;;;1.75;1.10;;;11.00;99.90;;;;;;5090583;28;20047;-52
2022/11/23 05:33:42;;;;;;;1.58;1.20;;;11.00;99.90;;;;;;5087546;28;20031;-52
2022/11/23 05:36:08;;;;;;;2.25;1.30;;;11.10;99.90;;;;;;5091933;28;20537;-52
2022/11/23 05:38:34;;;;;;;3.17;1.75;;;11.10;99.90;;;;;;5087404;28;20032;-52
2022/11/23 05:41:00;;;;;;;2.65;1.88;;;11.20;99.90;;;;;;5085684;28;20050;-52
2022/11/23 05:43:25;;;;;;;3.70;1.70;;;11.20;99.90;;;;;;5085875;28;20028;-53
2022/11/23 05:45:51;;;;;;;4.18;2.55;;;11.30;99.90;;;;;;5015795;28;20025;-53
2022/11/23 05:48:17;;;;;;;4.22;2.70;;;11.20;99.90;;;;;;5096458;28;20051;-53
2022/11/23 05:50:43;;;;;;;6.57;4.28;;;11.20;99.90;;;;;;5085859;28;20024;-52
2022/11/23 05:53:08;;;;;;;8.50;5.75;;;11.00;99.90;;;;;;5086678;28;20028;-54
2022/11/23 05:55:34;;;;;;;4.80;4.20;;;11.00;99.90;;;;;;5085475;28;20170;-52
2022/11/23 05:58:00;;;;;;;6.88;5.03;;;10.90;99.90;;;;;;5085780;28;20065;-52
2022/11/23 06:00:26;;;;;;;8.85;5.82;;;10.70;99.90;;;;;;5080556;28;20143;-52
2022/11/23 06:02:51;;;;;;;9.00;6.05;;;10.70;99.90;;;;;;5090951;28;20020;-52
2022/11/23 06:05:17;;;;;;;11.02;6.05;;;10.50;99.90;;;;;;5078632;28;20171;-53
2022/11/23 06:07:43;;;;;;;11.70;8.38;;;10.30;99.90;;;;;;5085156;28;20028;-52
2022/11/23 06:10:10;;;;;;;8.27;5.45;;;10.30;99.90;;;;;;5085997;28;20025;-52
2022/11/23 06:12:35;;;;;;;17.63;7.10;;;10.20;99.90;;;;;;5087837;28;20042;-52
2022/11/23 06:15:01;;;;;;;12.23;7.15;;;10.10;99.90;;;;;;5085208;28;20032;-52
2022/11/23 06:17:27;;;;;;;8.93;6.93;;;10.10;99.90;;;;;;5085096;28;20025;-52
2022/11/23 06:19:52;;;;;;;11.02;8.32;;;10.20;99.90;;;;;;5087178;28;20094;-51
2022/11/23 06:22:18;;;;;;;11.38;6.70;;;10.20;99.90;;;;;;5086601;28;20378;-53
2022/11/23 06:24:44;;;;;;;11.60;9.52;;;10.10;99.90;;;;;;5086712;28;20021;-53
2022/11/23 06:27:09;;;;;;;11.82;8.77;;;9.90;99.90;;;;;;5084650;28;20029;-53
2022/11/23 06:29:35;;;;;;;17.25;11.98;;;9.90;99.90;;;;;;5085330;28;20034;-52
2022/11/23 06:32:01;;;;;;;15.15;12.30;;;9.80;99.90;;;;;;5091009;28;20032;-52
2022/11/23 06:34:27;;;;;;;17.00;15.13;;;9.80;99.90;;;;;;5072175;28;20869;-52
2022/11/23 06:36:53;;;;;;;14.00;12.30;;;9.80;99.90;;;;;;5089679;28;20055;-51
2022/11/23 06:39:18;;;;;;;13.93;10.32;;;9.60;99.90;;;;;;5084064;28;20038;-52
2022/11/23 06:41:44;;;;;;;12.13;9.90;;;9.60;99.90;;;;;;5084648;28;20024;-52
2022/11/23 06:44:10;;;;;;;12.98;10.77;;;9.60;99.90;;;;;;5084751;28;20020;-54
2022/11/23 06:46:36;;;;;;;18.25;11.43;;;9.70;99.90;;;;;;5091034;28;20078;-52
2022/11/23 06:49:02;;;;;;;9.80;6.85;;;9.70;99.90;;;;;;5090879;28;20032;-51
2022/11/23 06:51:27;;;;;;;16.38;11.23;;;9.60;99.90;;;;;;5086868;28;20032;-52
2022/11/23 06:53:53;;;;;;;12.38;9.45;;;9.60;99.90;;;;;;5078295;28;20043;-52
2022/11/23 06:56:19;;;;;;;11.90;9.43;;;9.60;99.90;;;;;;5072096;28;20050;-52
2022/11/23 06:58:44;;;;;;;12.65;9.90;;;9.60;99.90;;;;;;5108105;28;20071;-51
2022/11/23 07:01:10;;;;;;;12.75;9.82;;;9.70;99.90;;;;;;5077152;28;20068;-52
2022/11/23 07:03:36;;;;;;;9.88;8.15;;;9.60;99.90;;;;;;5087261;28;20439;-51
2022/11/23 07:06:06;;;;;;;13.35;10.25;;;9.60;99.90;;;;;;5090720;28;20107;-52
2022/11/23 07:08:32;;;;;;;14.10;9.63;;;9.70;99.90;;;;;;5089291;28;20073;-51
2022/11/23 07:11:02;;;;;;;11.50;9.25;;;9.60;99.90;;;;;;5102428;28;20119;-52
2022/11/23 07:13:28;;;;;;;10.75;8.52;;;9.60;99.90;;;;;;5078367;28;20035;-51
2022/11/23 07:15:54;;;;;;;12.75;9.30;;;9.60;99.90;;;;;;5098726;28;20428;-52
2022/11/23 07:18:19;;;;;;;8.10;6.07;;;9.40;99.90;;;;;;5086994;28;20039;-52
2022/11/23 07:20:45;;;;;;;12.10;8.15;;;9.20;99.90;;;;;;5089564;28;20028;-51
2022/11/23 07:23:11;;;;;;;11.10;7.95;;;9.30;99.90;;;;;;5081082;28;20091;-52
2022/11/23 07:25:37;;;;;;;16.23;10.43;;;9.30;99.90;;;;;;5081560;28;20046;-52
2022/11/23 07:28:06;;;;;;;9.75;7.35;;;9.30;99.90;;;;;;5083307;28;20112;-52
2022/11/23 07:30:33;;;;;;;10.18;8.18;;;9.40;99.90;;;;;;5102192;28;20032;-52
2022/11/23 07:33:01;;;;;;;12.55;8.63;;;9.40;99.90;;;;;;5097348;28;20086;-52
2022/11/23 07:35:27;;;;;;;11.13;8.60;;;9.40;99.90;;;;;;5100740;28;20043;-52
2022/11/23 07:37:53;;;;;;;9.50;7.85;;;9.20;99.90;;;;;;5094885;28;20027;-52
2022/11/23 07:40:19;;;;;;;6.72;4.93;;;9.00;99.90;;;;;;5074983;28;20036;-52
2022/11/23 07:42:44;;;;;;;9.88;7.55;;;9.00;99.90;;;;;;5068311;28;20089;-52
2022/11/23 07:45:11;;;;;;;11.63;10.18;;;9.10;99.90;;;;;;5100276;28;20040;-52
2022/11/23 07:47:37;;;;;;;12.70;10.20;;;9.20;99.90;;;;;;5100758;28;20173;-53
2022/11/23 07:50:05;;;;;;;13.27;11.18;;;9.20;99.90;;;;;;5099359;28;20254;-52
2022/11/23 07:52:31;;;;;;;15.38;11.07;;;9.10;99.90;;;;;;5068510;28;20063;-52
2022/11/23 07:54:59;;;;;;;30.92;18.20;;;9.00;99.90;;;;;;5099434;28;20111;-51
2022/11/23 07:57:24;;;;;;;16.45;10.15;;;9.00;99.90;;;;;;5094051;28;20036;-52
2022/11/23 07:59:50;;;;;;;9.65;6.35;;;9.10;99.90;;;;;;5107868;28;20387;-52
2022/11/23 08:02:16;;;;;;;9.05;7.40;;;8.80;99.90;;;;;;5083476;28;20064;-52
2022/11/23 08:04:41;;;;;;;9.10;7.80;;;9.10;99.90;;;;;;5081392;28;20039;-52
2022/11/23 08:07:07;;;;;;;7.68;5.28;;;9.00;99.90;;;;;;5075523;28;20045;-52
2022/11/23 08:09:33;;;;;;;12.00;10.20;;;8.90;99.90;;;;;;5081023;28;20093;-52
2022/11/23 08:11:59;;;;;;;13.55;10.30;;;9.00;99.90;;;;;;5084348;28;20040;-52
2022/11/23 08:14:24;;;;;;;11.77;9.00;;;9.20;99.90;;;;;;5078912;28;20107;-51
2022/11/23 08:16:51;;;;;;;11.32;8.73;;;9.20;99.90;;;;;;5077353;28;20029;-52
2022/11/23 08:19:17;;;;;;;10.43;8.45;;;9.30;99.90;;;;;;5076981;28;20036;-53
2022/11/23 08:21:43;;;;;;;10.18;7.82;;;9.40;99.90;;;;;;5085500;28;20109;-54
2022/11/23 08:24:09;;;;;;;15.05;11.38;;;9.30;99.90;;;;;;5100457;28;20086;-53
2022/11/23 08:26:35;;;;;;;9.05;6.45;;;9.10;99.90;;;;;;5088199;28;20403;-53
2022/11/23 08:29:00;;;;;;;82.03;55.72;;;9.20;99.90;;;;;;5075340;28;20035;-52
2022/11/23 08:31:26;;;;;;;15.45;10.63;;;9.20;99.90;;;;;;5087906;28;20050;-52
2022/11/23 08:33:52;;;;;;;11.40;10.02;;;9.20;99.90;;;;;;5103392;28;20044;-52
2022/11/23 08:36:18;;;;;;;16.67;13.25;;;9.30;99.90;;;;;;5079223;28;20032;-51
2022/11/23 08:38:43;;;;;;;17.42;13.55;;;9.40;99.90;;;;;;5082293;28;20381;-51
2022/11/23 08:41:09;;;;;;;16.77;13.85;;;9.50;99.90;;;;;;5089823;28;20024;-52
2022/11/23 08:43:35;;;;;;;12.80;10.55;;;9.40;99.90;;;;;;5078476;28;20076;-53
2022/11/23 08:46:02;;;;;;;14.32;10.77;;;9.40;99.90;;;;;;4995051;28;20061;-53
2022/11/23 08:48:28;;;;;;;7.72;5.72;;;9.40;99.90;;;;;;5082890;28;20086;-53
2022/11/23 08:50:57;;;;;;;16.80;12.02;;;9.30;99.90;;;;;;5080725;28;20052;-53
2022/11/23 08:53:22;;;;;;;10.75;8.45;;;9.40;99.90;;;;;;5075849;28;20040;-53
2022/11/23 08:55:48;;;;;;;25.30;17.92;;;9.60;99.90;;;;;;5079189;28;20404;-53
2022/11/23 08:58:14;;;;;;;13.45;9.82;;;9.50;99.90;;;;;;5092458;27;20078;-52
2022/11/23 09:00:40;;;;;;;10.18;8.15;;;9.50;99.90;;;;;;5075518;28;20040;-53
2022/11/23 09:03:05;;;;;;;9.77;8.23;;;9.60;99.90;;;;;;5082534;28;20031;-53
2022/11/23 09:05:31;;;;;;;9.88;8.77;;;9.70;99.90;;;;;;5079481;28;20051;-53
2022/11/23 09:08:00;;;;;;;6.45;4.97;;;9.70;99.90;;;;;;5073084;28;20055;-54
2022/11/23 09:10:26;;;;;;;6.03;5.38;;;9.70;99.90;;;;;;5077454;28;20415;-53
2022/11/23 09:12:52;;;;;;;6.35;5.60;;;9.80;99.90;;;;;;5077009;28;20077;-54
2022/11/23 09:15:18;;;;;;;6.43;4.88;;;9.90;99.90;;;;;;5083319;28;20020;-55
2022/11/23 09:17:44;;;;;;;5.30;4.50;;;10.00;99.90;;;;;;5075052;28;20064;-54
2022/11/23 09:20:11;;;;;;;6.35;4.60;;;10.00;99.90;;;;;;5082998;28;20067;-54
2022/11/23 09:22:37;;;;;;;4.05;3.33;;;10.10;99.90;;;;;;5083330;28;20089;-54
2022/11/23 09:25:03;;;;;;;8.55;4.30;;;10.20;99.90;;;;;;5080894;28;20555;-53
2022/11/23 09:27:28;;;;;;;5.47;4.70;;;10.20;99.90;;;;;;5080772;28;20097;-54
2022/11/23 09:29:54;;;;;;;6.05;5.10;;;10.00;99.90;;;;;;5081197;28;20458;-51
2022/11/23 09:32:20;;;;;;;9.13;7.72;;;10.20;99.90;;;;;;5083768;28;20024;-48
2022/11/23 09:34:46;;;;;;;6.22;5.60;;;10.20;99.90;;;;;;5082275;28;20059;-57
2022/11/23 09:37:12;;;;;;;5.28;4.78;;;10.30;99.90;;;;;;5079016;28;20032;-55
2022/11/23 09:39:38;;;;;;;6.30;5.60;;;10.40;99.90;;;;;;5076798;28;20060;-55
2022/11/23 09:42:41;;;;;;;8.80;5.25;;;10.40;99.90;;;;;;5084101;28;20062;-56
2022/11/23 09:45:33;;;;;;;5.75;5.03;;;10.70;99.90;;;;;;5084941;28;20028;-56
2022/11/23 09:48:04;;;;;;;5.40;4.90;;;10.80;99.90;;;;;;5078954;28;20064;-56
2022/11/23 09:50:53;;;;;;;8.05;5.30;;;10.80;99.90;;;;;;5081475;28;20055;-55
2022/11/23 09:53:35;;;;;;;8.40;5.00;;;11.00;99.90;;;;;;5075741;28;20131;-57
2022/11/23 09:56:01;;;;;;;6.72;4.75;;;10.90;99.90;;;;;;5074014;28;20490;-47
2022/11/23 09:58:34;;;;;;;6.40;4.70;;;10.90;99.90;;;;;;5083157;28;20047;-52
2022/11/23 10:01:05;;;;;;;23.63;6.90;;;11.00;99.90;;;;;;5072123;28;20035;-59
2022/11/23 10:03:35;;;;;;;6.03;3.60;;;11.00;99.90;;;;;;5074288;28;20158;-57
2022/11/23 10:06:16;;;;;;;3.42;2.40;;;10.80;99.90;;;;;;5092421;28;20028;-53
2022/11/23 10:09:17;;;;;;;3.10;2.38;;;10.70;99.90;;;;;;5037735;28;20044;-52
2022/11/23 10:11:58;;;;;;;8.25;3.53;;;10.80;99.90;;;;;;5075558;28;20111;-47
2022/11/23 10:14:24;;;;;;;3.75;2.80;;;10.80;99.90;;;;;;5078137;28;20111;-50
2022/11/23 10:17:01;;;;;;;6.50;2.80;;;10.90;99.90;;;;;;5080084;28;20128;-57
2022/11/23 10:20:18;;;;;;;3.35;1.95;;;11.00;99.90;;;;;;5074603;28;20035;-49
2022/11/23 10:22:58;;;;;;;8.40;1.65;;;10.70;99.90;;;;;;5047504;28;20496;-49
2022/11/23 10:25:28;;;;;;;2.22;1.75;;;10.50;99.90;;;;;;5045832;28;20087;-48
2022/11/23 10:27:59;;;;;;;3.58;2.25;;;10.50;99.90;;;;;;5048156;28;20511;-50
2022/11/23 10:30:25;;;;;;;3.60;2.00;;;10.50;99.90;;;;;;5045406;28;20160;-55
2022/11/23 10:33:20;;;;;;;3.25;2.05;;;10.60;99.90;;;;;;5038118;28;20290;-46
2022/11/23 10:35:46;;;;;;;4.43;1.67;;;10.50;99.90;;;;;;5044802;28;20025;-44
2022/11/23 10:38:17;;;;;;;2.90;1.60;;;10.20;99.90;;;;;;5044310;28;20040;-45
2022/11/23 10:40:52;;;;;;;3.67;1.65;;;9.90;99.90;;;;;;5040905;28;20041;-54
2022/11/23 10:43:24;;;;;;;2.45;1.40;;;10.00;99.90;;;;;;5029741;28;20115;-50
2022/11/23 10:45:49;;;;;;;1.77;1.20;;;9.70;99.90;;;;;;5047187;28;20131;-45
2022/11/23 10:48:35;;;;;;;2.25;1.38;;;9.60;99.90;;;;;;5045977;28;20125;-45
2022/11/23 10:51:20;;;;;;;1.98;1.38;;;9.60;99.90;;;;;;5042893;28;20128;-51
2022/11/23 10:53:57;;;;;;;3.63;2.15;;;9.50;99.90;;;;;;5046916;28;20026;-48
2022/11/23 10:56:23;;;;;;;2.45;1.80;;;9.70;99.90;;;;;;5049933;28;20043;-48
2022/11/23 10:58:48;;;;;;;3.28;2.10;;;9.70;99.90;;;;;;5072542;28;20517;-51
2022/11/23 11:01:17;;;;;;;10.90;4.80;;;9.70;99.90;;;;;;5081921;28;20059;-52
2022/11/23 11:03:43;;;;;;;7.38;3.60;;;9.90;99.90;;;;;;5079110;28;20077;-51
2022/11/23 11:06:10;;;;;;;4.63;3.08;;;10.00;99.90;;;;;;5081616;28;20024;-51
2022/11/23 11:08:54;;;;;;;5.20;3.05;;;10.10;99.90;;;;;;5075433;28;20024;-52
2022/11/23 11:11:29;;;;;;;5.47;3.00;;;10.10;99.90;;;;;;5080563;28;20498;-53
2022/11/23 11:14:15;;;;;;;3.53;2.22;;;10.40;99.90;;;;;;5099176;28;20064;-53
2022/11/23 11:16:54;;;;;;;4.53;2.97;;;10.10;99.90;;;;;;5083355;28;20036;-52
2022/11/23 11:19:30;;;;;;;6.88;4.13;;;10.40;99.90;;;;;;5077984;28;20071;-54
2022/11/23 11:22:00;;;;;;;14.52;8.20;;;10.30;99.90;;;;;;5054712;28;20040;-51
2022/11/23 11:24:36;;;;;;;7.90;4.38;;;10.30;99.90;;;;;;5084956;28;20036;-52
2022/11/23 11:27:22;;;;;;;4.65;3.47;;;10.40;99.90;;;;;;5083071;28;20044;-54
2022/11/23 11:29:50;;;;;;;4.65;3.25;;;10.50;99.90;;;;;;5076238;28;20024;-51
2022/11/23 11:32:20;;;;;;;22.85;13.45;;;10.50;99.90;;;;;;5080273;28;20134;-54
2022/11/23 11:34:52;;;;;;;30.92;18.15;;;10.40;99.90;;;;;;5086017;28;20120;-53
2022/11/23 11:37:33;;;;;;;7.68;5.13;;;10.20;99.90;;;;;;5078696;28;20050;-52
2022/11/23 11:40:07;;;;;;;59.13;39.25;;;10.10;99.90;;;;;;5078122;28;20094;-53
2022/11/23 11:42:39;;;;;;;10.30;6.50;;;10.30;99.90;;;;;;5052072;28;20079;-53
2022/11/23 11:45:20;;;;;;;7.57;5.57;;;10.10;99.90;;;;;;5079648;28;20036;-52
2022/11/23 11:48:09;;;;;;;5.53;2.50;;;10.00;99.90;;;;;;5062136;28;20044;-54
2022/11/23 11:50:51;;;;;;;3.25;2.35;;;9.70;99.90;;;;;;5083788;28;20020;-51
2022/11/23 11:53:23;;;;;;;3.42;2.50;;;9.50;99.90;;;;;;5085749;28;20396;-52
2022/11/23 11:56:06;;;;;;;;;;;9.40;99.90;;;;;;5089214;28;20032;-53
2022/11/23 11:58:35;;;;;;;3.47;1.92;;;9.50;99.90;;;;;;5081514;28;20019;-53
2022/11/23 12:01:38;;;;;;;2.88;1.95;;;9.50;99.90;;;;;;5077915;28;20103;-53
2022/11/23 12:04:23;;;;;;;6.60;2.85;;;9.30;99.90;;;;;;5087641;28;20035;-51
2022/11/23 12:07:21;;;;;;;3.83;2.40;;;9.40;99.90;;;;;;5085109;28;20102;-51
2022/11/23 12:09:52;;;;;;;4.68;2.50;;;9.40;99.90;;;;;;5083137;28;20024;-50
2022/11/23 12:12:20;;;;;;;5.05;2.65;;;9.50;99.90;;;;;;5086895;28;20059;-50
2022/11/23 12:14:46;;;;;;;4.40;2.97;;;9.50;99.90;;;;;;5084071;28;20012;-53
2022/11/23 12:17:39;;;;;;;2.30;1.73;;;9.60;99.90;;;;;;5078431;28;20496;-57
2022/11/23 12:20:17;;;;;;;4.07;2.25;;;9.40;99.90;;;;;;5073115;28;20060;-52
2022/11/23 12:22:58;;;;;;;2.28;1.63;;;9.20;99.90;;;;;;5069507;28;20123;-54
2022/11/23 12:25:23;;;;;;;2.70;2.25;;;9.10;99.90;;;;;;5098121;28;20040;-54
2022/11/23 12:28:10;;;;;;;4.03;2.67;;;9.10;99.90;;;;;;5076199;28;20476;-55
2022/11/23 12:30:46;;;;;;;3.50;2.90;;;9.20;99.90;;;;;;5085291;28;20102;-51
2022/11/23 12:33:27;;;;;;;3.92;2.80;;;10.30;99.90;;;;;;5089344;28;20039;-47
2022/11/23 12:36:27;;;;;;;9.50;2.97;;;9.30;99.90;;;;;;5083102;28;20385;-47
2022/11/23 12:39:11;;;;;;;4.43;2.90;;;9.20;99.90;;;;;;5041377;28;20045;-49
2022/11/23 12:41:42;;;;;;;2.83;2.53;;;9.10;99.90;;;;;;5043747;28;20075;-50
2022/11/23 12:44:48;;;;;;;3.80;2.75;;;9.10;99.90;;;;;;5035662;28;20029;-48
2022/11/23 12:47:34;;;;;;;3.15;2.50;;;9.10;99.90;;;;;;5042179;28;20474;-53
2022/11/23 12:50:27;;;;;;;7.68;4.28;;;8.90;99.90;;;;;;5042378;28;20036;-51
2022/11/23 12:52:53;;;;;;;5.60;3.90;;;9.00;99.90;;;;;;5040585;28;20493;-49
2022/11/23 12:55:37;;;;;;;6.43;4.35;;;9.00;99.90;;;;;;5027911;28;20051;-54
2022/11/23 12:58:21;;;;;;;6.47;4.03;;;8.90;99.90;;;;;;5043117;28;20037;-49